Strong City, Oklahoma
Current Conditions -  °F | °C
As of 1:35 AM on Wednesday 26 Nov 2014 (Local Time) from KELK Reporting Station
Clear Clear  
Wind Chill: 31°   Ceiling: Unl
Heat Index: 36°   Visibility: 10mi
Dew Point: 32°   Wind: 6mph
Humidity: 87%   Direction: 180°S
Pressure: 29.98"   Gusts: NA
Location:  35.6401°N, 99.6878°W
Report Text: KELK 260735Z AUTO 18005KT 10SM CLR 02/00 A2998 RMK AO2
Loading
Personal Weather Stations






























Interactive Weather Map New forecast layout! Learn more

10-Day Weather Forecast

Advertisements
Track Severe Weather on mobile